createdAt,value
2023-03-28T00:00:36.632Z,1.64
2023-03-28T00:03:03.698Z,1.60
2023-03-28T00:05:31.422Z,1.62
2023-03-28T00:07:59.792Z,1.62
2023-03-28T00:10:27.380Z,1.62
2023-03-28T00:12:53.804Z,1.59
2023-03-28T00:15:20.218Z,1.52
2023-03-28T00:17:46.848Z,1.55
2023-03-28T00:20:14.434Z,1.51
2023-03-28T00:22:40.900Z,1.52
2023-03-28T00:25:08.250Z,1.51
2023-03-28T00:27:35.951Z,1.42
2023-03-28T00:30:05.992Z,1.45
2023-03-28T00:32:32.505Z,1.42
2023-03-28T00:34:58.983Z,1.37
2023-03-28T00:37:25.558Z,1.26
2023-03-28T00:39:53.776Z,1.18
2023-03-28T00:42:23.199Z,1.17
2023-03-28T00:44:57.145Z,1.13
2023-03-28T00:47:38.878Z,1.07
2023-03-28T00:50:23.273Z,1.01
2023-03-28T00:52:58.726Z,0.94
2023-03-28T00:55:31.195Z,0.90
2023-03-28T00:57:58.625Z,0.71
2023-03-28T01:00:25.571Z,0.90
2023-03-28T01:02:55.939Z,0.80
2023-03-28T01:05:27.541Z,0.95
2023-03-28T01:08:02.113Z,0.90
2023-03-28T01:10:31.277Z,0.79
2023-03-28T01:12:59.052Z,0.75
2023-03-28T01:15:25.792Z,0.81
2023-03-28T01:17:53.686Z,0.79
2023-03-28T01:20:40.485Z,0.76
2023-03-28T01:23:16.195Z,0.75
2023-03-28T01:26:07.619Z,0.72
2023-03-28T01:29:06.933Z,0.68
2023-03-28T01:34:59.797Z,0.66
2023-03-28T01:37:36.091Z,0.61
2023-03-28T01:40:24.196Z,0.58
2023-03-28T01:42:53.580Z,0.54
2023-03-28T01:45:48.510Z,0.54
2023-03-28T01:48:41.569Z,0.43
2023-03-28T01:51:44.073Z,0.50
2023-03-28T01:54:48.787Z,0.45
2023-03-28T01:57:23.657Z,0.38
2023-03-28T01:59:53.612Z,0.33
2023-03-28T02:02:37.328Z,0.33
2023-03-28T02:05:08.656Z,0.30
2023-03-28T02:07:36.043Z,0.24
2023-03-28T02:10:04.798Z,0.24
2023-03-28T02:12:38.035Z,0.16
2023-03-28T02:15:08.548Z,0.12
2023-03-28T02:17:41.530Z,0.17
2023-03-28T02:20:12.458Z,0.20
2023-03-28T02:22:54.020Z,0.17
2023-03-28T02:25:20.675Z,0.18
2023-03-28T02:27:52.945Z,0.14
2023-03-28T02:30:19.967Z,0.16
2023-03-28T02:32:50.339Z,0.16
2023-03-28T02:35:24.884Z,0.19
2023-03-28T02:38:13.308Z,0.15
2023-03-28T02:40:53.257Z,0.14
2023-03-28T02:43:49.553Z,0.13
2023-03-28T02:46:30.313Z,0.05
2023-03-28T02:49:24.124Z,0.06
2023-03-28T02:52:14.722Z,-0.04
2023-03-28T02:54:52.845Z,-0.10
2023-03-28T02:57:25.244Z,-0.12
2023-03-28T03:00:12.869Z,-0.28
2023-03-28T03:02:44.194Z,-0.12
2023-03-28T03:05:11.707Z,-0.15
2023-03-28T03:07:38.771Z,-0.17
2023-03-28T03:10:07.268Z,-0.15
2023-03-28T03:12:34.100Z,-0.18
2023-03-28T03:15:01.704Z,-0.23
2023-03-28T03:17:28.769Z,-0.19
2023-03-28T03:19:56.053Z,-0.24
2023-03-28T03:22:23.156Z,-0.18
2023-03-28T03:24:51.076Z,-0.17
2023-03-28T03:27:19.017Z,-0.15
2023-03-28T03:29:46.166Z,-0.17
2023-03-28T03:32:12.714Z,-0.10
2023-03-28T03:34:41.455Z,-0.07
2023-03-28T03:37:11.679Z,-0.07
2023-03-28T03:39:38.108Z,-0.05
2023-03-28T03:42:04.651Z,-0.01
2023-03-28T03:44:31.161Z,-0.11
2023-03-28T03:46:57.886Z,0.01
2023-03-28T03:49:24.558Z,-0.02
2023-03-28T03:51:51.244Z,0.01
2023-03-28T03:54:17.823Z,-0.05
2023-03-28T03:56:44.866Z,0.05
2023-03-28T03:59:11.511Z,0.05
2023-03-28T04:01:39.900Z,0.07
2023-03-28T04:04:07.794Z,0.07
2023-03-28T04:06:34.489Z,0.09
2023-03-28T04:09:01.072Z,0.03
2023-03-28T04:11:27.505Z,0.11
2023-03-28T04:13:53.888Z,0.09
2023-03-28T04:16:20.837Z,0.01
2023-03-28T04:18:50.900Z,-0.07
2023-03-28T04:21:19.843Z,-0.10
2023-03-28T04:23:48.374Z,-0.13
2023-03-28T04:26:15.388Z,-0.21
2023-03-28T04:28:42.025Z,-0.24
2023-03-28T04:31:12.086Z,-0.31
2023-03-28T04:33:40.063Z,-0.28
2023-03-28T04:36:07.976Z,-0.31
2023-03-28T04:38:37.508Z,-0.35
2023-03-28T04:41:05.421Z,-0.39
2023-03-28T04:43:32.065Z,-0.48
2023-03-28T04:45:59.138Z,-0.46
2023-03-28T04:48:27.161Z,-0.46
2023-03-28T04:50:54.739Z,-0.47
2023-03-28T04:53:22.382Z,-0.54
2023-03-28T04:55:50.212Z,-0.48
2023-03-28T04:58:18.310Z,-0.50
2023-03-28T05:00:49.016Z,-0.50
2023-03-28T05:03:21.232Z,-0.56
2023-03-28T05:05:49.330Z,-0.57
2023-03-28T05:08:17.547Z,-0.58
2023-03-28T05:10:47.362Z,-0.59
2023-03-28T05:13:14.606Z,-0.61
2023-03-28T05:15:42.256Z,-0.61
2023-03-28T05:18:09.289Z,-0.65
2023-03-28T05:20:36.462Z,-0.69
2023-03-28T05:23:03.808Z,-0.64
2023-03-28T05:25:30.389Z,-0.64
2023-03-28T05:27:56.902Z,-0.66
2023-03-28T05:30:23.492Z,-0.70
2023-03-28T05:32:49.945Z,-0.64
2023-03-28T05:35:16.782Z,-0.64
2023-03-28T05:37:46.652Z,-0.67
2023-03-28T05:40:14.399Z,-0.70
2023-03-28T05:42:41.093Z,-0.70
2023-03-28T05:45:08.664Z,-0.74
2023-03-28T05:47:35.348Z,-0.80
2023-03-28T05:50:02.556Z,-0.74
2023-03-28T05:52:29.277Z,-0.72
2023-03-28T05:54:56.293Z,-0.72
2023-03-28T05:57:23.833Z,-0.66
2023-03-28T06:06:04.645Z,-0.48
2023-03-28T06:08:31.205Z,-0.20
2023-03-28T06:11:02.477Z,0.07
2023-03-28T06:13:29.462Z,0.25
2023-03-28T06:15:56.135Z,0.51
2023-03-28T06:18:22.717Z,0.74
2023-03-28T06:20:49.212Z,0.86
2023-03-28T06:23:15.926Z,1.12
2023-03-28T06:25:42.377Z,1.35
2023-03-28T06:28:08.965Z,1.45
2023-03-28T06:30:35.417Z,1.69
2023-03-28T06:33:01.863Z,1.86
2023-03-28T06:35:28.392Z,2.18
2023-03-28T06:37:54.857Z,2.36
2023-03-28T06:40:21.323Z,2.42
2023-03-28T06:42:47.786Z,2.70
2023-03-28T06:45:14.207Z,2.61
2023-03-28T06:47:40.702Z,2.74
2023-03-28T06:50:07.761Z,2.89
2023-03-28T06:52:34.328Z,2.95
2023-03-28T06:55:00.803Z,2.92
2023-03-28T06:57:27.286Z,3.27
2023-03-28T06:59:53.709Z,3.34
2023-03-28T07:02:20.240Z,3.59
2023-03-28T07:04:46.712Z,3.83
2023-03-28T07:07:13.201Z,4.01
2023-03-28T07:09:39.846Z,3.96
2023-03-28T07:12:06.547Z,3.86
2023-03-28T07:14:33.149Z,3.88
2023-03-28T07:16:59.598Z,3.79
2023-03-28T07:19:26.081Z,3.79
2023-03-28T07:21:53.102Z,4.32
2023-03-28T07:24:19.721Z,3.98
2023-03-28T07:26:46.184Z,4.25
2023-03-28T07:29:12.649Z,4.37
2023-03-28T07:31:39.147Z,4.09
2023-03-28T07:34:05.853Z,4.46
2023-03-28T07:36:32.377Z,4.56
2023-03-28T07:38:59.884Z,4.70
2023-03-28T07:41:26.556Z,4.69
2023-03-28T07:43:52.996Z,4.82
2023-03-28T07:46:20.809Z,4.78
2023-03-28T07:48:47.405Z,5.08
2023-03-28T07:51:14.347Z,5.19
2023-03-28T07:53:41.465Z,5.32
2023-03-28T07:56:12.461Z,5.51
2023-03-28T07:58:40.854Z,5.68
2023-03-28T08:01:12.602Z,5.75
2023-03-28T08:03:40.198Z,6.19
2023-03-28T08:06:20.680Z,6.21
2023-03-28T08:08:55.538Z,6.36
2023-03-28T08:11:22.797Z,6.33
2023-03-28T08:13:49.263Z,6.46
2023-03-28T08:16:15.707Z,7.33
2023-03-28T08:18:42.170Z,7.99
2023-03-28T08:21:08.616Z,7.63
2023-03-28T08:23:35.075Z,8.27
2023-03-28T08:26:04.977Z,7.88
2023-03-28T08:28:33.313Z,8.68
2023-03-28T08:31:00.571Z,8.34
2023-03-28T08:33:29.047Z,7.68
2023-03-28T08:35:56.280Z,7.65
2023-03-28T08:38:23.547Z,7.55
2023-03-28T08:41:40.504Z,7.59
2023-03-28T08:44:19.901Z,7.33
2023-03-28T08:46:52.485Z,7.39
2023-03-28T08:49:18.978Z,7.26
2023-03-28T08:51:56.112Z,7.14
2023-03-28T08:54:28.937Z,6.89
2023-03-28T08:56:57.870Z,6.98
2023-03-28T08:59:44.595Z,6.94
2023-03-28T09:02:22.341Z,6.74
2023-03-28T09:04:50.240Z,7.16
2023-03-28T09:07:42.178Z,7.25
2023-03-28T09:10:17.904Z,7.57
2023-03-28T09:13:02.988Z,7.75
2023-03-28T09:15:56.358Z,8.03
2023-03-28T09:18:45.606Z,7.58
2023-03-28T09:21:31.359Z,8.07
2023-03-28T09:24:35.334Z,8.47
2023-03-28T09:27:06.792Z,7.95
2023-03-28T09:29:39.940Z,7.91
2023-03-28T09:32:19.318Z,8.00
2023-03-28T09:34:49.654Z,8.48
2023-03-28T09:37:21.826Z,8.86
2023-03-28T09:39:52.419Z,8.02
2023-03-28T09:42:44.725Z,7.42
2023-03-28T09:45:30.229Z,7.80
2023-03-28T09:47:57.245Z,7.45
2023-03-28T09:50:23.833Z,7.46
2023-03-28T09:52:53.410Z,7.30
2023-03-28T09:55:25.989Z,7.40
2023-03-28T09:57:59.623Z,7.25
2023-03-28T10:00:26.411Z,7.23
2023-03-28T10:02:53.440Z,7.30
2023-03-28T10:05:35.096Z,7.69
2023-03-28T10:08:05.209Z,7.38
2023-03-28T10:10:31.806Z,7.60
2023-03-28T10:13:03.976Z,7.44
2023-03-28T10:15:39.853Z,7.88
2023-03-28T10:18:06.669Z,8.43
2023-03-28T10:20:37.629Z,8.34
2023-03-28T10:23:05.277Z,7.86
2023-03-28T10:25:39.264Z,8.11
2023-03-28T10:28:08.212Z,8.39
2023-03-28T10:30:36.777Z,8.88
2023-03-28T10:33:15.219Z,9.37
2023-03-28T10:35:48.142Z,9.16
2023-03-28T10:38:19.885Z,9.35
2023-03-28T10:41:10.950Z,8.56
2023-03-28T10:43:40.365Z,8.20
2023-03-28T10:46:32.004Z,8.81
2023-03-28T10:49:03.968Z,8.91
2023-03-28T10:51:32.639Z,9.10
2023-03-28T10:54:33.229Z,8.07
2023-03-28T10:57:16.279Z,7.95
2023-03-28T10:59:42.690Z,7.82
2023-03-28T11:02:09.279Z,8.21
2023-03-28T11:04:54.754Z,8.50
2023-03-28T11:07:28.854Z,8.35
2023-03-28T11:10:11.040Z,8.01
2023-03-28T11:12:55.203Z,7.83
2023-03-28T11:15:32.277Z,7.86
2023-03-28T11:18:06.485Z,7.63
2023-03-28T11:20:59.096Z,7.98
2023-03-28T11:23:48.313Z,7.97
2023-03-28T11:26:20.790Z,7.82
2023-03-28T11:29:09.024Z,7.83
2023-03-28T11:31:45.945Z,8.21
2023-03-28T11:34:29.104Z,7.81
2023-03-28T11:37:00.789Z,7.96
2023-03-28T11:39:27.145Z,7.67
2023-03-28T11:41:55.824Z,7.80
2023-03-28T11:44:33.348Z,7.88
2023-03-28T11:47:07.638Z,7.92
2023-03-28T11:49:39.833Z,8.24
2023-03-28T11:52:16.533Z,8.05
2023-03-28T11:54:49.240Z,8.05
2023-03-28T11:57:33.308Z,8.83
2023-03-28T12:00:14.856Z,9.32
2023-03-28T12:02:52.501Z,9.72
2023-03-28T12:05:32.838Z,9.75
2023-03-28T12:08:12.498Z,8.94
2023-03-28T12:10:42.898Z,9.40
2023-03-28T12:13:14.819Z,9.62
2023-03-28T12:15:47.668Z,9.95
2023-03-28T12:18:46.540Z,10.72
2023-03-28T12:21:25.817Z,10.77
2023-03-28T12:24:16.040Z,10.73
2023-03-28T12:26:59.494Z,10.94
2023-03-28T12:29:39.259Z,11.43
2023-03-28T12:32:37.613Z,11.58
2023-03-28T12:35:29.033Z,11.02
2023-03-28T12:37:55.564Z,10.75
2023-03-28T12:40:59.814Z,10.92
2023-03-28T12:43:42.668Z,10.28
2023-03-28T12:46:13.350Z,10.05
2023-03-28T12:49:00.762Z,9.98
2023-03-28T12:51:43.218Z,9.89
2023-03-28T12:54:15.661Z,9.49
2023-03-28T12:56:46.471Z,9.43
2023-03-28T12:59:38.825Z,9.95
2023-03-28T13:02:19.761Z,10.22
2023-03-28T13:04:55.006Z,10.10
2023-03-28T13:07:43.882Z,10.31
2023-03-28T13:10:27.044Z,10.49
2023-03-28T13:13:12.229Z,10.37
2023-03-28T13:16:07.186Z,9.70
2023-03-28T13:18:34.453Z,9.64
2023-03-28T13:21:04.566Z,9.60
2023-03-28T13:23:46.898Z,9.94
2023-03-28T13:26:13.895Z,10.10
2023-03-28T13:28:46.448Z,10.27
2023-03-28T13:31:25.841Z,10.02
2023-03-28T13:33:59.851Z,9.60
2023-03-28T13:36:32.808Z,9.92
2023-03-28T13:39:09.308Z,9.81
2023-03-28T13:41:56.284Z,10.15
2023-03-28T13:44:34.084Z,10.13
2023-03-28T13:47:00.662Z,10.45
2023-03-28T13:49:29.939Z,10.42
2023-03-28T13:52:07.915Z,10.55
2023-03-28T13:54:34.541Z,10.81
2023-03-28T13:57:07.028Z,11.02
2023-03-28T14:00:05.845Z,10.72
2023-03-28T14:02:41.895Z,10.93
2023-03-28T14:05:22.055Z,10.79
2023-03-28T14:07:50.551Z,10.86
2023-03-28T14:10:33.910Z,11.00
2023-03-28T14:13:12.350Z,11.18
2023-03-28T14:15:40.973Z,11.33
2023-03-28T14:18:15.330Z,11.26
2023-03-28T14:20:43.783Z,11.13
2023-03-28T14:23:27.567Z,11.52
2023-03-28T14:25:54.342Z,11.46
2023-03-28T14:28:28.217Z,11.67
2023-03-28T14:30:54.735Z,11.55
2023-03-28T14:33:25.441Z,11.71
2023-03-28T14:36:03.698Z,11.87
2023-03-28T14:38:33.557Z,12.15
2023-03-28T14:41:21.224Z,12.11
2023-03-28T14:43:53.560Z,11.72
2023-03-28T14:46:32.977Z,11.83
2023-03-28T14:49:04.222Z,11.93
2023-03-28T14:51:44.817Z,12.08
2023-03-28T14:54:16.704Z,12.20
2023-03-28T14:56:45.337Z,12.20
2023-03-28T14:59:19.667Z,11.99
2023-03-28T15:01:49.542Z,11.95
2023-03-28T15:04:20.220Z,11.98
2023-03-28T15:06:55.924Z,12.10
2023-03-28T15:09:28.884Z,11.83
2023-03-28T15:11:57.360Z,11.72
2023-03-28T15:14:42.800Z,11.63
2023-03-28T15:17:20.851Z,11.31
2023-03-28T15:19:52.772Z,11.30
2023-03-28T15:22:27.157Z,10.78
2023-03-28T15:24:56.619Z,10.81
2023-03-28T15:27:32.558Z,10.70
2023-03-28T15:30:05.382Z,10.47
2023-03-28T15:32:33.244Z,10.38
2023-03-28T15:35:06.176Z,10.67
2023-03-28T15:37:44.503Z,10.70
2023-03-28T15:40:32.368Z,10.68
2023-03-28T15:43:01.320Z,10.83
2023-03-28T15:45:37.488Z,10.85
2023-03-28T15:48:04.342Z,10.74
2023-03-28T15:50:38.520Z,10.77
2023-03-28T15:53:07.888Z,10.68
2023-03-28T15:55:34.870Z,10.79
2023-03-28T15:58:03.970Z,10.87
2023-03-28T16:00:44.600Z,10.73
2023-03-28T16:03:20.508Z,10.71
2023-03-28T16:06:01.849Z,10.70
2023-03-28T16:08:40.514Z,10.73
2023-03-28T16:11:15.722Z,10.80
2023-03-28T16:13:42.298Z,10.80
2023-03-28T16:16:16.366Z,10.79
2023-03-28T16:18:44.710Z,10.77
2023-03-28T16:21:11.522Z,10.80
2023-03-28T16:23:38.315Z,10.85
2023-03-28T16:26:06.764Z,10.85
2023-03-28T16:28:33.194Z,10.50
2023-03-28T16:30:59.686Z,10.60
2023-03-28T16:33:26.230Z,10.67
2023-03-28T16:35:53.164Z,10.53
2023-03-28T16:38:19.685Z,10.39
2023-03-28T16:40:48.495Z,10.35
2023-03-28T16:43:16.438Z,10.26
2023-03-28T16:45:47.902Z,10.23
2023-03-28T16:48:14.910Z,10.19
2023-03-28T16:50:41.380Z,10.19
2023-03-28T16:53:07.924Z,10.20
2023-03-28T16:55:34.669Z,10.08
2023-03-28T16:58:01.347Z,9.92
2023-03-28T17:00:28.621Z,9.89
2023-03-28T17:02:55.415Z,9.81
2023-03-28T17:05:22.085Z,9.66
2023-03-28T17:07:48.514Z,9.56
2023-03-28T17:10:14.985Z,9.50
2023-03-28T17:12:42.175Z,9.51
2023-03-28T17:15:09.480Z,9.47
2023-03-28T17:17:36.323Z,9.38
2023-03-28T17:20:02.976Z,9.36
2023-03-28T17:22:29.418Z,9.38
2023-03-28T17:24:57.101Z,9.27
2023-03-28T17:27:23.740Z,9.30
2023-03-28T17:29:51.683Z,9.28
2023-03-28T17:32:20.804Z,9.22
2023-03-28T17:34:47.993Z,9.20
2023-03-28T17:37:14.400Z,9.13
2023-03-28T17:39:41.124Z,9.13
2023-03-28T17:42:09.040Z,9.08
2023-03-28T17:44:35.553Z,9.08
2023-03-28T17:47:02.055Z,9.09
2023-03-28T17:49:28.460Z,9.02
2023-03-28T17:51:56.684Z,9.04
2023-03-28T17:54:24.559Z,9.06
2023-03-28T17:56:51.539Z,9.08
2023-03-28T17:59:18.526Z,9.03
2023-03-28T18:01:45.582Z,8.97
2023-03-28T18:04:12.768Z,8.96
2023-03-28T18:06:40.513Z,8.95
2023-03-28T18:09:06.996Z,8.90
2023-03-28T18:11:34.213Z,8.92
2023-03-28T18:14:00.755Z,8.73
2023-03-28T18:16:28.733Z,8.87
2023-03-28T18:18:55.389Z,8.72
2023-03-28T18:21:21.822Z,8.64
2023-03-28T18:23:48.296Z,8.57
2023-03-28T18:26:14.901Z,8.52
2023-03-28T18:28:41.463Z,8.62
2023-03-28T18:31:14.699Z,8.52
2023-03-28T18:33:45.062Z,8.42
2023-03-28T18:36:12.778Z,8.33
2023-03-28T18:38:42.613Z,8.26
2023-03-28T18:41:10.268Z,8.05
2023-03-28T18:43:38.529Z,7.84
2023-03-28T18:46:07.570Z,7.72
2023-03-28T18:48:34.902Z,7.49
2023-03-28T18:51:03.226Z,7.22
2023-03-28T18:53:30.284Z,7.08
2023-03-28T18:55:56.752Z,6.94
2023-03-28T18:58:26.311Z,6.84
2023-03-28T19:00:59.858Z,6.74
2023-03-28T19:03:28.619Z,6.59
2023-03-28T19:05:56.398Z,6.48
2023-03-28T19:08:26.108Z,6.50
2023-03-28T19:10:57.243Z,6.35
2023-03-28T19:13:24.632Z,6.27
2023-03-28T19:16:03.183Z,6.30
2023-03-28T19:18:29.921Z,6.25
2023-03-28T19:20:58.027Z,6.14
2023-03-28T19:23:26.372Z,5.98
2023-03-28T19:25:52.929Z,5.95
2023-03-28T19:28:20.505Z,5.89
2023-03-28T19:30:47.413Z,5.73
2023-03-28T19:33:14.211Z,5.62
2023-03-28T19:35:42.318Z,5.66
2023-03-28T19:38:08.834Z,5.65
2023-03-28T19:40:35.358Z,5.68
2023-03-28T19:43:02.718Z,5.67
2023-03-28T19:45:30.361Z,5.73
2023-03-28T19:47:57.327Z,5.74
2023-03-28T19:50:24.069Z,5.77
2023-03-28T19:52:51.004Z,5.65
2023-03-28T19:55:17.547Z,5.93
2023-03-28T19:57:44.041Z,5.99
2023-03-28T20:00:11.238Z,5.96
2023-03-28T20:02:37.845Z,6.03
2023-03-28T20:05:04.758Z,6.08
2023-03-28T20:07:31.969Z,5.97
2023-03-28T20:09:58.472Z,5.85
2023-03-28T20:12:25.008Z,5.75
2023-03-28T20:14:51.447Z,5.83
2023-03-28T20:17:17.862Z,5.92
2023-03-28T20:19:44.358Z,6.02
2023-03-28T20:22:10.775Z,6.09
2023-03-28T20:24:37.361Z,6.15
2023-03-28T20:27:04.060Z,6.22
2023-03-28T20:29:30.558Z,6.29
2023-03-28T20:31:57.019Z,6.22
2023-03-28T20:34:23.508Z,6.02
2023-03-28T20:36:49.935Z,6.10
2023-03-28T20:39:16.977Z,5.93
2023-03-28T20:41:45.606Z,5.83
2023-03-28T20:44:19.902Z,5.90
2023-03-28T20:46:48.746Z,5.99
2023-03-28T20:49:17.947Z,6.01
2023-03-28T20:51:44.403Z,6.11
2023-03-28T20:54:10.988Z,6.20
2023-03-28T20:56:37.526Z,6.24
2023-03-28T20:59:04.386Z,6.28
2023-03-28T21:01:32.780Z,6.29
2023-03-28T21:04:01.692Z,6.29
2023-03-28T21:06:34.518Z,6.31
2023-03-28T21:09:04.424Z,6.21
2023-03-28T21:11:33.101Z,6.34
2023-03-28T21:14:01.058Z,6.28
2023-03-28T21:16:29.038Z,6.33
2023-03-28T21:18:56.130Z,6.21
2023-03-28T21:21:23.043Z,6.25
2023-03-28T21:23:50.068Z,6.28
2023-03-28T21:26:19.235Z,6.26
2023-03-28T21:28:46.460Z,6.16
2023-03-28T21:31:15.476Z,6.19
2023-03-28T21:33:42.795Z,6.17
2023-03-28T21:36:11.594Z,6.11
2023-03-28T21:38:38.885Z,6.09
2023-03-28T21:41:06.272Z,6.15
2023-03-28T21:43:33.272Z,6.02
2023-03-28T21:45:59.862Z,6.03
2023-03-28T21:48:27.018Z,5.95
2023-03-28T21:50:58.935Z,6.08
2023-03-28T21:53:32.104Z,6.08
2023-03-28T21:55:59.496Z,6.04
2023-03-28T21:58:29.196Z,6.03
2023-03-28T22:00:55.913Z,6.04
2023-03-28T22:03:22.502Z,5.99
2023-03-28T22:05:51.825Z,6.00
2023-03-28T22:08:19.340Z,6.04
2023-03-28T22:10:58.497Z,6.05
2023-03-28T22:13:25.257Z,6.02
2023-03-28T22:15:58.464Z,6.03
2023-03-28T22:18:25.903Z,6.06
2023-03-28T22:20:53.447Z,6.06
2023-03-28T22:23:23.874Z,5.92
2023-03-28T22:25:52.789Z,5.95
2023-03-28T22:28:24.010Z,5.85
2023-03-28T22:30:53.558Z,5.83
2023-03-28T22:33:20.006Z,5.87
2023-03-28T22:35:47.528Z,5.87
2023-03-28T22:38:14.029Z,5.71
2023-03-28T22:40:40.493Z,5.85
2023-03-28T22:43:07.029Z,5.88
2023-03-28T22:45:33.975Z,5.89
2023-03-28T22:48:03.033Z,5.93
2023-03-28T22:50:29.969Z,5.95
2023-03-28T22:52:56.451Z,5.94
2023-03-28T22:55:24.189Z,5.94
2023-03-28T22:57:52.298Z,5.94
2023-03-28T23:00:21.599Z,5.91
2023-03-28T23:02:48.720Z,5.90
2023-03-28T23:05:15.285Z,5.94
2023-03-28T23:07:41.735Z,5.88
2023-03-28T23:10:12.085Z,5.89
2023-03-28T23:12:38.537Z,5.85
2023-03-28T23:15:05.409Z,5.90
2023-03-28T23:17:32.155Z,5.91
2023-03-28T23:20:00.422Z,5.94
2023-03-28T23:22:27.187Z,5.87
2023-03-28T23:24:53.692Z,5.90
2023-03-28T23:27:20.395Z,5.94
2023-03-28T23:29:46.895Z,5.88
2023-03-28T23:32:13.541Z,5.69
2023-03-28T23:34:40.340Z,5.93
2023-03-28T23:37:07.116Z,5.88
2023-03-28T23:39:33.541Z,5.92
2023-03-28T23:41:59.994Z,5.91
2023-03-28T23:44:27.763Z,5.97
2023-03-28T23:46:56.233Z,5.93
2023-03-28T23:49:23.081Z,5.85
2023-03-28T23:51:49.971Z,5.79
2023-03-28T23:54:18.037Z,5.83
2023-03-28T23:56:44.905Z,5.81
2023-03-28T23:59:11.987Z,5.66
